Time;durP1;ratioP1;P1;durP2;ratioP2;P2;SDS_P1;SDS_P2;PMS_P1;PMS_P2;Temp;Humidity;BMP_temperature;BMP_pressure;BME280_temperature;BME280_humidity;BME280_pressure;Samples;Min_cycle;Max_cycle;Signal;HPM_P1;HPM_P2
2023/08/21 00:01:29;;;;;;;10.57;7.07;;;;;;;23.74;51.71;99431.09;5030704;28;20044;-79
2023/08/21 00:03:54;;;;;;;12.85;8.32;;;;;;;23.54;52.33;99431.75;5031241;28;20036;-79
2023/08/21 00:06:20;;;;;;;16.60;8.95;;;;;;;23.53;52.41;99441.53;5011678;28;20021;-79
2023/08/21 00:08:46;;;;;;;16.25;9.15;;;;;;;23.59;51.97;99445.53;5014895;28;20119;-79
2023/08/21 00:11:11;;;;;;;11.68;8.43;;;;;;;23.55;52.37;99451.28;5001926;28;20104;-79
2023/08/21 00:13:37;;;;;;;13.57;8.57;;;;;;;23.49;52.67;99452.19;5014188;28;20061;-79
2023/08/21 00:16:02;;;;;;;10.10;7.95;;;;;;;23.53;52.34;99441.53;5012860;28;20496;-79
2023/08/21 00:18:28;;;;;;;11.52;7.60;;;;;;;23.37;53.01;99442.13;5033046;28;20072;-78
2023/08/21 00:20:53;;;;;;;13.18;8.13;;;;;;;23.25;53.42;99452.81;5012746;28;20029;-78
2023/08/21 00:23:19;;;;;;;8.38;7.53;;;;;;;23.18;53.38;99450.03;5011789;28;20033;-78
2023/08/21 00:25:48;;;;;;;14.32;7.60;;;;;;;23.22;53.62;99453.63;5009825;28;20033;-78
2023/08/21 00:28:13;;;;;;;8.40;6.82;;;;;;;23.16;53.73;99446.78;5009996;28;20030;-78
2023/08/21 00:30:39;;;;;;;10.85;7.78;;;;;;;23.23;53.40;99454.47;5024496;28;20025;-78
2023/08/21 00:33:05;;;;;;;10.43;7.82;;;;;;;23.25;53.42;99457.69;5014955;28;20064;-78
2023/08/21 00:35:30;;;;;;;10.23;7.57;;;;;;;23.17;53.60;99454.09;5013420;28;20467;-78
2023/08/21 00:37:56;;;;;;;13.48;8.02;;;;;;;23.26;53.70;99463.00;5006654;28;20120;-78
2023/08/21 00:40:21;;;;;;;9.10;7.30;;;;;;;23.33;53.61;99465.00;5004641;28;20049;-78
2023/08/21 00:42:47;;;;;;;11.75;7.85;;;;;;;23.45;53.20;99469.34;4994898;28;20058;-78
2023/08/21 00:45:12;;;;;;;10.90;7.50;;;;;;;23.20;53.64;99453.25;5014421;28;20025;-78
2023/08/21 00:47:38;;;;;;;8.70;7.70;;;;;;;23.33;53.54;99459.28;5017643;28;20030;-78
2023/08/21 00:50:06;;;;;;;11.95;7.22;;;;;;;23.38;53.63;99463.72;5018902;28;20036;-78
2023/08/21 00:52:33;;;;;;;17.50;7.78;;;;;;;22.95;54.10;99428.63;5009945;28;20031;-78
2023/08/21 00:54:59;;;;;;;11.98;8.05;;;;;;;23.11;54.19;99452.97;5030987;28;20037;-78
2023/08/21 00:57:25;;;;;;;12.38;8.00;;;;;;;23.29;53.81;99464.22;5014348;28;20160;-78
2023/08/21 00:59:51;;;;;;;10.48;8.68;;;;;;;23.46;53.35;99461.59;5014518;28;20021;-78
2023/08/21 01:02:18;;;;;;;11.40;8.32;;;;;;;23.76;52.70;99465.75;5014464;28;20087;-78
2023/08/21 01:04:44;;;;;;;14.50;8.63;;;;;;;23.97;52.08;99470.41;5024709;28;20029;-78
2023/08/21 01:07:10;;;;;;;12.10;7.57;;;;;;;24.22;51.55;99475.00;5012963;28;20064;-78
2023/08/21 01:09:47;;;;;;;9.55;8.63;;;;;;;24.45;50.96;99468.53;5014316;28;20139;-78
2023/08/21 01:12:37;;;;;;;10.85;7.20;;;;;;;24.66;50.12;99475.19;5023480;28;20507;-78
2023/08/21 01:15:06;;;;;;;11.38;7.55;;;;;;;24.67;49.96;99473.94;5015623;28;20518;-78
2023/08/21 01:17:34;;;;;;;13.75;7.50;;;;;;;24.61;49.97;99467.06;5017074;28;20124;-78
2023/08/21 01:20:00;;;;;;;11.77;7.93;;;;;;;24.46;50.54;99472.22;5004930;28;20112;-78
2023/08/21 01:22:48;;;;;;;10.27;8.18;;;;;;;24.23;51.10;99477.41;5029512;28;20025;-78
2023/08/21 01:25:15;;;;;;;8.63;7.43;;;;;;;24.09;51.41;99463.31;5024077;28;20022;-78
2023/08/21 01:27:44;;;;;;;11.32;8.18;;;;;;;24.11;51.46;99464.53;5018199;28;20488;-78
2023/08/21 01:30:10;;;;;;;20.60;8.07;;;;;;;23.94;51.51;99466.34;5022914;28;20035;-78
2023/08/21 01:32:59;;;;;;;9.43;7.50;;;;;;;23.83;52.20;99457.09;5015418;28;20041;-78
2023/08/21 01:35:26;;;;;;;10.77;7.50;;;;;;;23.81;52.50;99462.44;5012781;28;20171;-78
2023/08/21 01:37:52;;;;;;;10.43;7.63;;;;;;;23.69;52.42;99456.03;5031373;28;20033;-78
2023/08/21 01:40:24;;;;;;;11.98;7.25;;;;;;;23.69;52.47;99461.75;5011299;28;20059;-78
2023/08/21 01:42:49;;;;;;;9.43;7.10;;;;;;;23.60;52.43;99457.78;5027511;28;20107;-78
2023/08/21 01:45:15;;;;;;;15.18;7.22;;;;;;;23.62;52.68;99470.38;5029152;28;20034;-78
2023/08/21 01:47:41;;;;;;;12.63;6.82;;;;;;;23.54;52.65;99463.94;5011715;28;20065;-78
2023/08/21 01:50:07;;;;;;;9.63;7.32;;;;;;;23.70;52.41;99466.22;5000864;28;20029;-78
2023/08/21 01:52:32;;;;;;;19.20;7.75;;;;;;;23.84;52.13;99458.72;5013597;28;20041;-79
2023/08/21 01:54:58;;;;;;;9.18;7.28;;;;;;;24.00;51.23;99451.56;5031214;28;20025;-79
2023/08/21 01:57:23;;;;;;;10.32;7.00;;;;;;;24.12;50.86;99465.31;5011005;28;20061;-78
2023/08/21 01:59:49;;;;;;;12.32;7.55;;;;;;;24.03;51.42;99465.84;5028686;28;20083;-78
2023/08/21 02:02:14;;;;;;;9.45;6.93;;;;;;;23.91;51.55;99464.34;5013503;28;20033;-78
2023/08/21 02:04:40;;;;;;;9.75;7.50;;;;;;;23.80;51.83;99460.81;5022122;28;20113;-77
2023/08/21 02:07:06;;;;;;;10.25;7.43;;;;;;;23.56;52.85;99469.25;5030351;28;20021;-78
2023/08/21 02:09:32;;;;;;;15.48;7.43;;;;;;;23.41;53.69;99465.72;5009898;28;20036;-78
2023/08/21 02:11:58;;;;;;;8.20;6.78;;;;;;;23.19;53.92;99456.56;5030963;28;20100;-78
2023/08/21 02:14:23;;;;;;;10.63;6.43;;;;;;;23.14;54.14;99455.75;5007171;28;20029;-78
2023/08/21 02:16:49;;;;;;;11.73;8.45;;;;;;;23.21;54.01;99454.06;5013438;28;20523;-78
2023/08/21 02:19:14;;;;;;;9.77;8.00;;;;;;;23.07;54.26;99455.84;5010117;28;20440;-78
2023/08/21 02:21:40;;;;;;;8.38;7.38;;;;;;;23.06;54.42;99459.09;5012522;28;20064;-78
2023/08/21 02:24:05;;;;;;;8.82;7.50;;;;;;;22.98;54.57;99458.34;5011314;28;20062;-78
2023/08/21 02:26:31;;;;;;;7.72;7.03;;;;;;;23.17;54.09;99444.72;5013672;28;20518;-78
2023/08/21 02:28:57;;;;;;;12.05;7.13;;;;;;;23.38;53.57;99460.88;5030914;28;20507;-79
2023/08/21 02:31:23;;;;;;;12.35;7.30;;;;;;;23.38;53.46;99452.31;5013550;28;20033;-78
2023/08/21 02:33:49;;;;;;;13.15;8.07;;;;;;;23.35;53.55;99445.41;5017021;28;20028;-78
2023/08/21 02:36:15;;;;;;;11.13;7.30;;;;;;;22.98;54.31;99430.63;5011429;28;20025;-78
2023/08/21 02:38:41;;;;;;;8.50;7.45;;;;;;;23.09;54.14;99430.56;5031002;28;20488;-78
2023/08/21 02:41:07;;;;;;;9.98;7.30;;;;;;;23.21;54.08;99452.00;5047747;28;20033;-79
2023/08/21 02:43:33;;;;;;;15.77;8.20;;;;;;;23.19;54.29;99448.78;5009867;28;20029;-78
2023/08/21 02:45:58;;;;;;;12.32;8.20;;;;;;;23.21;54.26;99452.00;5017209;28;20021;-78
2023/08/21 02:48:24;;;;;;;13.30;8.20;;;;;;;23.05;54.42;99446.91;5033904;28;20393;-78
2023/08/21 02:50:49;;;;;;;20.25;9.32;;;;;;;23.05;54.53;99458.31;5016771;28;20033;-78
2023/08/21 02:53:15;;;;;;;41.05;9.02;;;;;;;23.09;54.71;99455.41;5017101;28;20029;-78
2023/08/21 02:55:40;;;;;;;19.48;8.15;;;;;;;22.98;54.82;99449.81;5016842;28;20108;-78
2023/08/21 02:58:05;;;;;;;14.38;9.35;;;;;;;23.01;54.85;99448.94;5033690;28;20084;-78
2023/08/21 03:00:31;;;;;;;35.38;9.23;;;;;;;22.95;54.92;99453.50;5034501;28;20488;-79
2023/08/21 03:02:56;;;;;;;62.00;11.20;;;;;;;22.99;54.89;99454.28;5016682;28;20460;-78
2023/08/21 03:05:22;;;;;;;23.15;8.85;;;;;;;22.85;54.71;99430.34;5019177;28;20091;-79
2023/08/21 03:07:47;;;;;;;21.23;9.13;;;;;;;22.80;54.81;99430.78;5033164;28;20025;-79
2023/08/21 03:10:13;;;;;;;15.05;8.57;;;;;;;22.76;55.13;99449.19;5034431;28;20025;-78
2023/08/21 03:12:38;;;;;;;18.98;8.52;;;;;;;22.64;55.31;99448.44;5033827;28;20064;-79
2023/08/21 03:15:04;;;;;;;12.60;7.78;;;;;;;22.66;55.27;99453.72;5016257;28;20439;-78
2023/08/21 03:17:30;;;;;;;15.77;8.43;;;;;;;22.74;55.25;99454.47;5013955;28;20064;-78
2023/08/21 03:19:55;;;;;;;9.40;7.28;;;;;;;22.82;54.85;99467.44;5016086;28;20033;-78
2023/08/21 03:22:21;;;;;;;14.20;8.10;;;;;;;22.65;55.24;99464.31;5026835;28;20033;-78
2023/08/21 03:24:46;;;;;;;31.67;8.98;;;;;;;22.58;55.60;99462.34;5027927;28;20614;-78
2023/08/21 03:27:17;;;;;;;14.95;9.15;;;;;;;22.48;55.92;99466.06;5015110;28;20065;-78
2023/08/21 03:29:48;;;;;;;;;;;;;;;22.48;55.93;99466.06;5016835;28;20033;-78
2023/08/21 03:32:14;;;;;;;25.13;8.88;;;;;;;22.35;56.30;99462.84;5016128;28;19916;-78
2023/08/21 03:34:40;;;;;;;13.00;8.38;;;;;;;22.41;56.42;99463.22;5016024;28;20026;-78
2023/08/21 03:37:05;;;;;;;13.75;8.13;;;;;;;22.31;56.36;99456.38;5032689;28;20040;-78
2023/08/21 03:39:31;;;;;;;19.48;8.45;;;;;;;22.35;56.66;99462.84;5015588;28;20044;-77
2023/08/21 03:41:56;;;;;;;13.18;8.00;;;;;;;22.29;56.45;99464.53;5013056;28;20045;-77
2023/08/21 03:44:21;;;;;;;14.88;9.23;;;;;;;22.34;56.40;99468.97;5011745;28;20460;-78
2023/08/21 03:46:47;;;;;;;13.35;8.50;;;;;;;22.28;56.50;99472.25;5028360;28;20036;-78
2023/08/21 03:49:12;;;;;;;76.18;11.30;;;;;;;22.38;56.50;99466.91;5032958;28;20041;-78
2023/08/21 03:51:38;;;;;;;24.33;8.50;;;;;;;22.55;56.12;99477.41;5033261;28;20025;-78
2023/08/21 03:54:03;;;;;;;17.55;8.35;;;;;;;22.49;56.01;99478.25;5010061;28;20064;-78
2023/08/21 03:56:29;;;;;;;18.63;8.88;;;;;;;22.41;56.10;99477.47;5013042;28;20492;-78
2023/08/21 03:58:54;;;;;;;12.77;8.15;;;;;;;22.43;56.27;99475.81;5012663;28;20328;-78
2023/08/21 04:01:20;;;;;;;26.50;8.52;;;;;;;22.58;56.25;99482.28;5009532;28;20040;-78
2023/08/21 04:03:45;;;;;;;19.58;9.48;;;;;;;22.49;56.42;99479.09;5001976;28;20026;-79
2023/08/21 04:06:11;;;;;;;26.33;9.68;;;;;;;22.60;56.02;99476.16;5006537;28;20096;-79
2023/08/21 04:08:36;;;;;;;14.88;8.98;;;;;;;22.57;56.07;99469.25;4994391;28;20048;-79
2023/08/21 04:11:01;;;;;;;15.73;8.40;;;;;;;22.71;55.78;99478.94;5024145;28;20034;-79
2023/08/21 04:13:27;;;;;;;19.02;9.68;;;;;;;22.72;56.00;99466.31;5007417;28;20072;-80
2023/08/21 04:15:56;;;;;;;17.85;8.48;;;;;;;22.79;56.21;99480.50;5013978;28;20029;-80
2023/08/21 04:18:22;;;;;;;23.45;8.50;;;;;;;22.81;56.36;99480.09;5010211;28;20033;-80
2023/08/21 04:20:48;;;;;;;12.35;7.97;;;;;;;22.71;56.36;99468.34;5007635;28;20037;-80
2023/08/21 04:23:13;;;;;;;10.63;8.27;;;;;;;22.70;56.51;99472.41;5013431;28;20117;-80
2023/08/21 04:25:39;;;;;;;15.48;8.45;;;;;;;22.68;56.91;99483.44;5028568;28;20025;-80
2023/08/21 04:28:05;;;;;;;17.45;7.65;;;;;;;22.81;56.43;99480.09;5023331;28;20029;-80
2023/08/21 04:30:31;;;;;;;11.18;7.68;;;;;;;22.91;56.14;99482.03;5011091;28;20052;-80
2023/08/21 04:32:56;;;;;;;26.17;12.15;;;;;;;22.95;55.84;99457.16;5010544;28;20033;-80
2023/08/21 04:35:22;;;;;;;27.38;13.55;;;;;;;23.27;55.11;99473.19;5032464;28;20041;-80
2023/08/21 04:37:48;;;;;;;15.23;7.97;;;;;;;23.36;55.31;99480.47;5014725;28;20436;-80
2023/08/21 04:40:14;;;;;;;15.75;9.68;;;;;;;23.31;55.43;99470.31;5013832;28;20030;-80
2023/08/21 04:42:39;;;;;;;23.40;11.20;;;;;;;23.41;55.31;99477.97;5014587;28;20056;-80
2023/08/21 04:45:05;;;;;;;12.38;8.60;;;;;;;23.27;55.43;99476.06;5014836;28;20048;-80
2023/08/21 04:47:31;;;;;;;18.65;8.90;;;;;;;23.23;55.53;99477.28;5013462;28;20032;-80
2023/08/21 04:49:57;;;;;;;11.30;7.90;;;;;;;23.36;55.43;99484.09;5031307;28;20408;-80
2023/08/21 04:52:24;;;;;;;12.55;8.00;;;;;;;23.44;55.15;99489.75;5032271;28;20037;-80
2023/08/21 04:54:50;;;;;;;17.80;8.65;;;;;;;23.48;54.49;99484.81;5014488;28;20496;-80
2023/08/21 04:57:17;;;;;;;15.05;8.10;;;;;;;23.32;54.46;99454.81;5030444;28;20446;-80
2023/08/21 04:59:43;;;;;;;16.10;8.13;;;;;;;23.75;53.61;99481.25;5032448;28;20534;-80
2023/08/21 05:02:08;;;;;;;16.63;8.63;;;;;;;24.00;53.07;99489.53;5009933;28;20030;-80
2023/08/21 05:04:36;;;;;;;18.05;8.25;;;;;;;24.08;52.99;99498.84;5009816;28;20084;-80
2023/08/21 05:07:02;;;;;;;17.42;9.00;;;;;;;24.17;52.46;99489.75;5014258;28;20430;-80
2023/08/21 05:09:27;;;;;;;20.15;8.55;;;;;;;24.27;52.70;99496.56;5015623;28;20033;-80
2023/08/21 05:11:54;;;;;;;29.98;9.55;;;;;;;24.23;51.75;99497.41;5005188;28;20025;-80
2023/08/21 05:14:19;;;;;;;46.92;10.95;;;;;;;24.23;52.41;99494.56;5007648;28;20527;-80
2023/08/21 05:16:46;;;;;;;14.77;8.23;;;;;;;24.09;52.44;99500.47;5012442;28;20025;-80
2023/08/21 05:19:12;;;;;;;13.93;8.85;;;;;;;24.35;52.13;99492.38;5030101;28;20034;-80
2023/08/21 05:21:38;;;;;;;16.90;8.90;;;;;;;24.48;51.65;99486.88;5016126;28;20034;-80
2023/08/21 05:24:03;;;;;;;20.58;8.57;;;;;;;24.58;51.13;99488.78;5012478;28;20116;-80
2023/08/21 05:26:29;;;;;;;17.15;9.88;;;;;;;24.94;50.55;99501.72;5005601;28;20029;-79
2023/08/21 05:28:54;;;;;;;13.98;8.25;;;;;;;24.77;50.24;99475.03;5025390;28;20041;-80
2023/08/21 05:31:20;;;;;;;14.30;7.43;;;;;;;24.81;49.84;99502.34;5013621;28;20021;-80
2023/08/21 05:33:45;;;;;;;15.68;8.18;;;;;;;24.74;50.15;99499.56;5009576;28;20053;-80
2023/08/21 05:36:11;;;;;;;14.55;7.97;;;;;;;25.03;50.06;99498.31;5008812;28;20448;-80
2023/08/21 05:38:36;;;;;;;18.80;7.68;;;;;;;25.04;49.49;99505.66;5009149;28;20045;-80
2023/08/21 05:41:01;;;;;;;12.65;7.78;;;;;;;25.03;49.48;99504.84;5025407;28;20071;-80
2023/08/21 05:43:27;;;;;;;15.50;9.02;;;;;;;25.01;49.62;99507.34;5008391;28;20393;-80
2023/08/21 05:45:52;;;;;;;13.68;8.02;;;;;;;25.21;48.70;99504.56;5023742;28;20029;-80
2023/08/21 05:48:18;;;;;;;12.02;7.90;;;;;;;25.36;48.65;99502.25;5028606;28;20025;-80
2023/08/21 05:50:43;;;;;;;12.88;8.27;;;;;;;25.65;48.37;99507.47;5020739;28;20548;-80
2023/08/21 05:53:09;;;;;;;14.48;7.65;;;;;;;25.71;47.90;99507.78;5016107;28;20025;-80
2023/08/21 05:55:36;;;;;;;22.00;8.18;;;;;;;25.75;47.64;99504.84;5013866;28;20095;-80
2023/08/21 05:58:02;;;;;;;14.27;8.27;;;;;;;25.85;47.25;99500.13;5041715;28;20037;-80
2023/08/21 06:00:28;;;;;;;14.98;7.60;;;;;;;26.05;47.22;99503.81;5011813;28;20456;-80
2023/08/21 06:02:53;;;;;;;16.70;7.95;;;;;;;26.23;46.60;99508.38;5018441;28;20088;-80
2023/08/21 06:05:19;;;;;;;20.00;7.97;;;;;;;26.42;46.06;99515.34;5012423;28;20052;-80
2023/08/21 06:07:44;;;;;;;76.38;12.40;;;;;;;26.64;45.75;99514.84;5015683;28;20025;-79
2023/08/21 06:10:14;;;;;;;16.67;7.63;;;;;;;26.74;44.49;99510.94;5005836;28;20029;-79
2023/08/21 06:12:41;;;;;;;13.13;7.28;;;;;;;26.90;43.88;99510.19;5001525;28;20064;-80
2023/08/21 06:15:09;;;;;;;27.27;9.05;;;;;;;27.12;43.18;99517.44;5019971;28;20025;-81
2023/08/21 06:17:36;;;;;;;17.60;6.50;;;;;;;27.19;42.77;99523.81;5011876;28;20052;-81
2023/08/21 06:20:02;;;;;;;12.93;6.38;;;;;;;27.25;42.62;99526.94;5020167;28;20029;-80
2023/08/21 06:22:28;;;;;;;14.13;7.97;;;;;;;27.31;41.76;99521.47;5007629;28;20153;-81
2023/08/21 06:24:53;;;;;;;13.05;7.43;;;;;;;27.40;42.14;99517.97;5003192;28;20037;-79
2023/08/21 06:27:19;;;;;;;16.52;7.57;;;;;;;27.46;41.82;99499.75;5026124;28;20029;-80
2023/08/21 06:29:44;;;;;;;11.68;6.97;;;;;;;27.73;41.69;99526.56;5026067;28;20030;-80
2023/08/21 06:32:10;;;;;;;21.10;7.20;;;;;;;27.81;41.39;99524.28;5011526;28;20030;-80
2023/08/21 06:34:35;;;;;;;12.88;7.47;;;;;;;27.88;41.01;99518.34;5021393;28;20028;-82
2023/08/21 06:37:01;;;;;;;24.15;7.90;;;;;;;28.07;41.19;99519.44;5012583;28;20033;-80
2023/08/21 06:39:26;;;;;;;32.03;8.63;;;;;;;28.28;40.69;99523.78;5006171;28;20412;-79
2023/08/21 06:41:52;;;;;;;14.23;6.53;;;;;;;28.42;40.20;99524.63;5037198;28;20041;-80
2023/08/21 06:44:18;;;;;;;15.82;7.65;;;;;;;28.48;40.38;99533.47;5008853;28;20045;-80
2023/08/21 06:46:43;;;;;;;13.55;7.22;;;;;;;28.55;39.41;99525.44;5005226;28;20491;-81
2023/08/21 06:49:09;;;;;;;21.60;6.53;;;;;;;28.72;39.06;99531.09;5018964;28;20040;-80
2023/08/21 06:51:34;;;;;;;9.52;6.85;;;;;;;28.75;39.97;99526.50;5024318;28;20622;-80
2023/08/21 06:54:00;;;;;;;10.65;6.10;;;;;;;28.91;39.10;99523.53;5012083;28;20022;-79
2023/08/21 06:56:25;;;;;;;12.85;6.72;;;;;;;29.16;39.09;99532.63;5015537;28;20056;-80
2023/08/21 06:58:52;;;;;;;18.48;6.50;;;;;;;29.19;38.08;99528.81;4997838;28;21667;-83
2023/08/21 07:01:17;;;;;;;16.02;6.75;;;;;;;29.46;38.29;99527.50;5016983;28;20025;-80
2023/08/21 07:03:43;;;;;;;9.32;7.35;;;;;;;29.61;38.09;99519.16;5011530;28;20084;-81
2023/08/21 07:06:08;;;;;;;22.45;7.35;;;;;;;29.62;37.50;99530.22;5027664;28;20096;-80
2023/08/21 07:08:34;;;;;;;22.58;5.97;;;;;;;29.79;38.07;99507.00;5017987;28;20029;-79
2023/08/21 07:11:04;;;;;;;16.17;7.60;;;;;;;30.08;37.03;99526.13;5007199;28;20052;-80
2023/08/21 07:13:29;;;;;;;;;;;;;;;30.22;36.57;99524.81;5010983;28;20021;-79
2023/08/21 07:15:55;;;;;;;7.78;5.53;;;;;;;30.28;35.90;99522.91;5031168;28;20074;-79
2023/08/21 07:18:20;;;;;;;12.43;5.72;;;;;;;30.51;35.58;99520.78;5018407;28;20021;-80
2023/08/21 07:20:46;;;;;;;14.63;6.03;;;;;;;30.56;34.95;99511.53;5011413;28;20017;-80
2023/08/21 07:23:11;;;;;;;8.68;6.40;;;;;;;30.70;34.74;99515.94;5010495;28;20021;-79
2023/08/21 07:25:37;;;;;;;13.30;7.95;;;;;;;30.88;35.28;99505.78;5012560;28;20050;-80
2023/08/21 07:28:03;;;;;;;14.40;5.35;;;;;;;31.03;34.06;99506.78;5016426;28;20519;-79
2023/08/21 07:30:29;;;;;;;5.40;4.40;;;;;;;30.97;33.49;99502.91;5047859;28;20447;-80
2023/08/21 07:32:54;;;;;;;12.30;5.13;;;;;;;31.13;32.59;99504.72;5018801;28;20025;-80
2023/08/21 07:35:20;;;;;;;9.45;4.80;;;;;;;31.36;32.56;99506.25;5012644;28;20120;-79
2023/08/21 07:37:46;;;;;;;15.77;5.22;;;;;;;31.48;32.36;99501.59;5003651;28;20096;-79
2023/08/21 07:40:12;;;;;;;25.27;6.45;;;;;;;31.69;31.90;99498.25;5015247;28;20116;-80
2023/08/21 07:42:38;;;;;;;12.10;5.40;;;;;;;31.66;31.70;99500.81;4996908;28;20038;-78
2023/08/21 07:45:04;;;;;;;7.05;4.80;;;;;;;31.44;31.64;99500.16;5001465;28;20032;-80
2023/08/21 07:47:30;;;;;;;4.97;4.40;;;;;;;31.75;30.90;99502.09;5021742;28;20447;-78
2023/08/21 07:49:57;;;;;;;57.90;8.60;;;;;;;32.01;30.43;99501.78;5024744;28;20021;-77
2023/08/21 07:52:22;;;;;;;10.00;4.28;;;;;;;31.97;30.10;99490.38;5029131;28;20028;-78
2023/08/21 07:54:52;;;;;;;7.70;4.85;;;;;;;32.21;29.93;99501.25;5015384;28;20041;-81
2023/08/21 07:57:18;;;;;;;17.05;5.45;;;;;;;32.41;29.31;99499.97;5027713;28;20504;-79
2023/08/21 07:59:45;;;;;;;11.55;5.47;;;;;;;32.43;29.62;99485.81;5015411;28;20021;-78
2023/08/21 08:02:13;;;;;;;9.88;4.00;;;;;;;32.49;28.71;99499.13;5022145;28;20809;-78
2023/08/21 08:04:39;;;;;;;10.63;5.18;;;;;;;32.87;29.42;99496.09;5011686;28;20025;-79
2023/08/21 08:07:05;;;;;;;23.42;5.63;;;;;;;32.91;28.75;99496.75;5031489;28;20420;-78
2023/08/21 08:09:30;;;;;;;11.15;4.70;;;;;;;32.97;28.19;99491.88;5021867;28;20106;-78
2023/08/21 08:11:56;;;;;;;8.18;4.18;;;;;;;32.80;27.89;99491.44;5017621;28;20569;-78
2023/08/21 08:14:21;;;;;;;17.20;5.28;;;;;;;33.02;28.06;99490.41;5032727;28;20026;-79
2023/08/21 08:16:47;;;;;;;16.13;5.32;;;;;;;33.34;27.96;99485.06;5018726;28;20029;-78
2023/08/21 08:19:13;;;;;;;8.65;4.30;;;;;;;33.72;27.59;99488.50;5041683;28;20059;-79
2023/08/21 08:21:38;;;;;;;20.65;4.93;;;;;;;33.59;27.43;99485.88;5023288;28;20017;-79
2023/08/21 08:24:04;;;;;;;23.17;5.97;;;;;;;33.52;26.65;99480.44;5022228;28;20021;-79
2023/08/21 08:26:29;;;;;;;21.65;4.70;;;;;;;33.43;27.30;99479.22;5024635;28;20021;-80
2023/08/21 08:28:55;;;;;;;13.40;4.60;;;;;;;33.78;27.13;99474.09;5025729;28;20075;-80
2023/08/21 08:31:20;;;;;;;4.97;4.47;;;;;;;33.72;26.66;99474.81;5015709;28;20035;-80
2023/08/21 08:33:48;;;;;;;10.45;4.45;;;;;;;33.90;26.66;99481.72;5022752;28;20026;-81
2023/08/21 08:36:13;;;;;;;6.88;4.65;;;;;;;33.54;26.92;99477.84;5021156;28;20052;-80
2023/08/21 08:38:39;;;;;;;13.00;10.45;;;;;;;33.47;27.50;99476.13;5012306;28;20040;-80
2023/08/21 08:41:10;;;;;;;10.15;4.57;;;;;;;33.83;27.19;99467.63;5035618;28;20026;-79
2023/08/21 08:43:40;;;;;;;12.90;4.20;;;;;;;34.22;27.44;99453.06;5010886;28;20025;-79
2023/08/21 08:46:07;;;;;;;9.85;4.50;;;;;;;34.63;26.92;99477.78;5010222;28;20021;-79
2023/08/21 08:48:34;;;;;;;14.15;4.43;;;;;;;34.71;25.60;99473.97;5019742;28;20039;-79
2023/08/21 08:51:01;;;;;;;5.15;4.15;;;;;;;34.97;25.30;99460.88;5030072;28;20025;-79
2023/08/21 08:53:28;;;;;;;16.48;4.70;;;;;;;35.13;25.04;99457.44;5020201;28;20111;-79
2023/08/21 08:55:53;;;;;;;11.35;4.22;;;;;;;34.71;25.38;99470.25;5017273;28;20029;-79
2023/08/21 08:58:19;;;;;;;11.63;4.45;;;;;;;34.94;25.41;99461.88;5014598;28;20025;-80
2023/08/21 09:00:44;;;;;;;12.57;5.47;;;;;;;34.68;26.01;99443.03;5012117;28;20029;-80
2023/08/21 09:03:12;;;;;;;7.65;4.40;;;;;;;34.78;25.07;99448.72;5011220;28;20037;-79
2023/08/21 09:05:39;;;;;;;6.70;3.95;;;;;;;34.89;25.02;99430.66;5009496;28;20021;-80
2023/08/21 09:08:04;;;;;;;10.32;4.50;;;;;;;35.32;25.67;99457.13;5036839;28;20079;-80
2023/08/21 09:10:31;;;;;;;6.10;5.28;;;;;;;35.16;25.35;99451.91;5026084;28;20457;-80
2023/08/21 09:12:58;;;;;;;9.80;4.43;;;;;;;35.28;25.17;99448.63;5010183;28;20495;-80
2023/08/21 09:15:29;;;;;;;4.03;3.45;;;;;;;35.61;25.59;99443.78;5006138;28;20111;-80
2023/08/21 09:17:55;;;;;;;11.35;4.15;;;;;;;35.57;24.68;99437.38;5011747;28;20060;-79
2023/08/21 09:20:20;;;;;;;4.65;4.20;;;;;;;35.77;25.72;99438.66;5016350;28;20026;-79
2023/08/21 09:22:56;;;;;;;9.32;5.10;;;;;;;35.89;24.67;99434.56;5003946;28;20503;-79
2023/08/21 09:25:24;;;;;;;7.72;4.25;;;;;;;36.23;24.72;99434.09;5004647;28;20033;-78
2023/08/21 09:27:53;;;;;;;26.92;6.13;;;;;;;35.69;24.43;99430.38;4997318;28;20492;-80
2023/08/21 09:30:18;;;;;;;13.60;4.78;;;;;;;35.50;24.55;99423.28;5023217;28;20460;-80
2023/08/21 09:33:04;;;;;;;9.80;4.25;;;;;;;36.02;23.75;99427.53;5006604;28;20067;-79
2023/08/21 09:35:32;;;;;;;8.32;4.43;;;;;;;36.45;24.77;99418.94;5000425;28;20041;-79
2023/08/21 09:37:59;;;;;;;7.70;4.35;;;;;;;36.71;23.93;99417.28;5004153;28;20036;-79
2023/08/21 09:40:24;;;;;;;9.65;3.90;;;;;;;36.38;23.16;99419.41;5014954;28;20026;-80
2023/08/21 09:42:54;;;;;;;10.57;4.20;;;;;;;36.19;24.20;99416.09;5045515;28;20057;-80
2023/08/21 09:45:22;;;;;;;6.63;3.72;;;;;;;36.60;23.84;99415.09;5030047;28;20021;-80
2023/08/21 09:47:47;;;;;;;5.20;4.53;;;;;;;35.89;23.00;99393.84;5005622;28;20025;-80
2023/08/21 09:50:13;;;;;;;5.13;4.18;;;;;;;36.02;23.61;99407.19;5002701;28;20036;-79
2023/08/21 09:52:38;;;;;;;7.45;4.18;;;;;;;36.41;22.94;99409.63;5016811;28;20018;-80
2023/08/21 09:55:05;;;;;;;10.70;4.20;;;;;;;36.28;24.35;99400.53;5022806;28;20048;-80
2023/08/21 09:57:32;;;;;;;6.72;4.75;;;;;;;36.21;23.42;99396.81;5041585;28;20100;-80
2023/08/21 09:59:59;;;;;;;5.78;3.67;;;;;;;36.34;24.51;99393.44;5015352;28;20114;-79
2023/08/21 10:02:26;;;;;;;8.15;5.03;;;;;;;36.21;24.19;99396.81;5025086;28;20037;-80
2023/08/21 10:04:52;;;;;;;10.80;4.53;;;;;;;36.23;24.02;99382.53;5007951;28;20025;-82
2023/08/21 10:07:22;;;;;;;5.72;4.28;;;;;;;36.23;24.27;99391.25;5013511;28;20032;-81
2023/08/21 10:09:48;;;;;;;5.68;3.97;;;;;;;35.88;24.28;99392.25;5004401;28;20053;-80
2023/08/21 10:12:17;;;;;;;7.57;4.18;;;;;;;35.80;24.46;99385.28;4991191;28;20488;-80
2023/08/21 10:14:43;;;;;;;9.43;4.78;;;;;;;35.70;24.85;99373.81;5005778;28;20121;-79
2023/08/21 10:17:08;;;;;;;9.38;5.07;;;;;;;35.46;24.43;99367.44;5007225;28;20124;-80
2023/08/21 10:19:37;;;;;;;7.45;4.00;;;;;;;35.67;24.48;99379.88;5020117;28;20025;-80
2023/08/21 10:22:03;;;;;;;8.13;4.40;;;;;;;35.95;25.16;99370.63;5013804;28;20705;-79
2023/08/21 10:24:36;;;;;;;6.63;3.92;;;;;;;36.07;25.08;99374.44;5006314;28;20021;-80
2023/08/21 10:27:02;;;;;;;5.90;4.07;;;;;;;35.86;24.07;99362.88;5000024;28;20110;-80
2023/08/21 10:29:28;;;;;;;5.95;3.70;;;;;;;35.57;25.28;99361.78;5004880;28;20029;-80
2023/08/21 10:32:02;;;;;;;6.43;4.35;;;;;;;35.86;25.41;99374.50;5006403;28;20045;-79
2023/08/21 10:34:37;;;;;;;6.82;4.03;;;;;;;35.96;25.14;99375.94;5005035;28;20185;-80
2023/08/21 10:37:07;;;;;;;6.38;3.63;;;;;;;36.03;23.61;99373.84;5010065;28;20042;-80
2023/08/21 10:39:35;;;;;;;9.93;4.03;;;;;;;36.06;23.77;99367.03;4999141;28;20038;-80
2023/08/21 10:42:03;;;;;;;9.32;4.38;;;;;;;36.13;24.61;99368.66;5020630;28;20531;-80
2023/08/21 10:44:35;;;;;;;4.72;4.00;;;;;;;36.17;24.66;99372.94;5006298;28;20036;-80
2023/08/21 10:47:19;;;;;;;14.00;5.80;;;;;;;36.07;24.51;99363.59;4999207;28;20040;-80
2023/08/21 10:49:46;;;;;;;5.18;4.47;;;;;;;35.85;24.38;99361.28;4991634;28;20113;-80
2023/08/21 10:52:12;;;;;;;10.25;4.68;;;;;;;35.95;24.75;99359.75;5001893;28;20044;-80
2023/08/21 10:54:46;;;;;;;7.97;4.50;;;;;;;36.02;24.19;99357.72;5011388;28;20033;-80
2023/08/21 10:57:11;;;;;;;13.75;5.05;;;;;;;36.08;24.75;99361.47;5028906;28;20044;-80
2023/08/21 10:59:37;;;;;;;7.68;4.07;;;;;;;35.77;24.27;99328.94;5011215;28;20033;-80
2023/08/21 11:02:03;;;;;;;10.20;5.25;;;;;;;35.98;23.89;99355.03;5013450;28;20029;-80
2023/08/21 11:04:28;;;;;;;9.98;4.78;;;;;;;36.17;24.30;99355.47;5012141;28;20034;-80
2023/08/21 11:06:56;;;;;;;7.38;4.28;;;;;;;36.17;24.16;99354.69;5031516;28;20106;-80
2023/08/21 11:09:21;;;;;;;8.50;4.47;;;;;;;36.24;24.21;99352.09;5013249;28;20084;-80
2023/08/21 11:11:47;;;;;;;9.50;4.32;;;;;;;36.27;24.29;99340.72;5026665;28;20052;-80
2023/08/21 11:14:13;;;;;;;7.03;3.75;;;;;;;36.16;23.64;99342.25;5016146;28;20116;-80
2023/08/21 11:16:38;;;;;;;8.95;4.40;;;;;;;36.27;23.46;99344.47;5016119;28;20516;-80
2023/08/21 11:19:05;;;;;;;6.22;4.18;;;;;;;36.36;23.79;99346.38;5016676;28;20102;-79
2023/08/21 11:21:31;;;;;;;10.40;4.60;;;;;;;36.41;23.63;99339.75;5010502;28;20029;-80
2023/08/21 11:23:56;;;;;;;9.38;3.90;;;;;;;36.40;23.85;99332.34;5013945;28;20420;-80